Sign in

Advertising

Sponsor

Info

Aviation weather - KDAB

METAR KDAB 260153Z 10003KT 10SM CLR 24/17 A3019 RMK AO2 SLP221 T02390167

TAF KDAB 252325Z 2600/2624 07007KT P6SM SKC FM260200 VRB03KT P6SM SKC FM261500 06010KT P6SM SCT035

Aviation weather from ADDS. Re-check weather before flight.

-